Time;durP1;ratioP1;P1;durP2;ratioP2;P2;SDS_P1;SDS_P2;PMS_P1;PMS_P2;Temp;Humidity;BMP_temperature;BMP_pressure;BME280_temperature;BME280_humidity;BME280_pressure;Samples;Min_cycle;Max_cycle;Signal;HPM_P1;HPM_P2
2021/05/05 00:00:37;;;;;;;3.78;1.90;;;;;;;;;;5132465;27;20881;-76
2021/05/05 00:03:03;;;;;;;4.00;2.20;;;;;;;;;;5121823;27;21007;-76
2021/05/05 00:05:29;;;;;;;7.03;2.30;;;;;;;;;;5132063;27;20200;-75
2021/05/05 00:07:55;;;;;;;3.63;1.73;;;;;;;;;;5124315;27;20443;-75
2021/05/05 00:10:21;;;;;;;2.85;1.95;;;;;;;;;;5131446;27;20418;-77
2021/05/05 00:12:47;;;;;;;6.57;2.03;;;;;;;;;;5108452;27;20204;-77
2021/05/05 00:15:17;;;;;;;4.47;1.83;;;;;;;;;;5107688;27;20685;-76
2021/05/05 00:17:44;;;;;;;4.18;1.45;;;;;;;;;;5118213;27;20562;-74
2021/05/05 00:20:10;;;;;;;5.55;1.70;;;;;;;;;;5118081;27;20202;-77
2021/05/05 00:22:36;;;;;;;2.97;1.92;;;;;;;;;;5104260;27;20577;-75
2021/05/05 00:25:03;;;;;;;3.45;2.30;;;;;;;;;;5107498;27;20233;-75
2021/05/05 00:27:29;;;;;;;3.35;1.80;;;;;;;;;;5124935;27;20183;-75
2021/05/05 00:29:55;;;;;;;3.05;2.10;;;;;;;;;;5132475;27;20205;-75
2021/05/05 00:32:21;;;;;;;4.70;2.80;;;;;;;;;;5110996;27;20205;-75
2021/05/05 00:34:47;;;;;;;6.90;2.10;;;;;;;;;;5114455;28;20171;-75
2021/05/05 00:37:13;;;;;;;7.50;2.25;;;;;;;;;;5121301;27;20807;-78
2021/05/05 00:39:39;;;;;;;3.00;2.10;;;;;;;;;;5120082;27;20173;-77
2021/05/05 00:42:06;;;;;;;3.92;2.10;;;;;;;;;;5122947;27;20182;-77
2021/05/05 00:44:33;;;;;;;5.20;2.67;;;;;;;;;;5134995;27;20177;-75
2021/05/05 00:46:59;;;;;;;3.15;1.85;;;;;;;;;;5128551;27;20261;-75
2021/05/05 00:49:25;;;;;;;4.10;2.15;;;;;;;;;;5115412;27;20239;-76
2021/05/05 00:51:51;;;;;;;5.53;2.57;;;;;;;;;;5122800;27;20253;-74
2021/05/05 00:54:17;;;;;;;2.60;1.50;;;;;;;;;;5129553;27;20408;-76
2021/05/05 00:56:44;;;;;;;4.90;1.97;;;;;;;;;;5134744;27;20182;-76
2021/05/05 00:59:10;;;;;;;4.70;1.83;;;;;;;;;;5120608;27;20505;-77
2021/05/05 01:01:39;;;;;;;6.45;2.03;;;;;;;;;;5134995;27;20660;-75
2021/05/05 01:04:05;;;;;;;5.57;2.05;;;;;;;;;;5134650;27;20223;-75
2021/05/05 01:06:31;;;;;;;4.22;1.90;;;;;;;;;;5134843;27;20198;-76
2021/05/05 01:08:57;;;;;;;5.38;1.90;;;;;;;;;;5133973;27;20229;-75
2021/05/05 01:11:23;;;;;;;5.40;2.10;;;;;;;;;;5134406;27;20184;-75
2021/05/05 01:13:49;;;;;;;6.20;1.80;;;;;;;;;;5132472;27;20280;-75
2021/05/05 01:16:15;;;;;;;3.55;1.63;;;;;;;;;;5122874;27;20399;-75
2021/05/05 01:18:42;;;;;;;4.90;1.70;;;;;;;;;;5134098;27;20575;-76
2021/05/05 01:21:08;;;;;;;4.25;2.10;;;;;;;;;;5114837;28;20183;-76
2021/05/05 01:23:34;;;;;;;5.68;1.90;;;;;;;;;;5121465;27;20658;-75
2021/05/05 01:26:00;;;;;;;2.80;1.60;;;;;;;;;;5113812;28;20181;-77
2021/05/05 01:28:26;;;;;;;5.82;1.65;;;;;;;;;;5114112;28;20266;-76
2021/05/05 01:30:53;;;;;;;3.13;1.80;;;;;;;;;;5110928;28;20697;-74
2021/05/05 01:33:19;;;;;;;3.65;1.50;;;;;;;;;;5113200;27;20264;-75
2021/05/05 01:35:47;;;;;;;4.53;1.70;;;;;;;;;;5116831;27;20185;-75
2021/05/05 01:38:14;;;;;;;2.95;1.30;;;;;;;;;;5114254;27;20213;-75
2021/05/05 01:40:41;;;;;;;4.43;1.40;;;;;;;;;;5114053;28;20508;-76
2021/05/05 01:43:07;;;;;;;4.63;1.73;;;;;;;;;;5105540;27;20186;-77
2021/05/05 01:45:34;;;;;;;2.95;1.70;;;;;;;;;;5130967;27;20189;-75
2021/05/05 01:48:01;;;;;;;2.13;1.30;;;;;;;;;;5133893;27;20202;-76
2021/05/05 01:50:27;;;;;;;4.60;1.38;;;;;;;;;;5108363;28;20547;-74
2021/05/05 01:52:54;;;;;;;4.85;1.77;;;;;;;;;;5115942;28;20199;-75
2021/05/05 01:55:20;;;;;;;6.38;1.70;;;;;;;;;;5103690;28;20178;-75
2021/05/05 01:57:46;;;;;;;2.90;1.63;;;;;;;;;;5116210;28;20272;-74
2021/05/05 02:00:26;;;;;;;4.22;1.50;;;;;;;;;;5120439;28;20179;-76
2021/05/05 02:02:52;;;;;;;3.97;1.60;;;;;;;;;;5122905;28;20544;-75
2021/05/05 02:05:18;;;;;;;3.88;1.35;;;;;;;;;;5112759;28;20606;-75
2021/05/05 02:07:44;;;;;;;3.00;1.58;;;;;;;;;;5114193;28;20197;-75
2021/05/05 02:10:12;;;;;;;3.47;1.60;;;;;;;;;;5105642;28;20673;-75
2021/05/05 02:12:38;;;;;;;2.42;1.50;;;;;;;;;;5116797;28;20589;-75
2021/05/05 02:15:05;;;;;;;4.88;2.28;;;;;;;;;;5112501;28;20217;-75
2021/05/05 02:17:31;;;;;;;2.97;1.60;;;;;;;;;;5131727;28;20238;-76
2021/05/05 02:19:57;;;;;;;2.53;1.50;;;;;;;;;;5112145;28;20182;-75
2021/05/05 02:22:23;;;;;;;3.38;1.75;;;;;;;;;;5111699;28;20178;-75
2021/05/05 02:24:49;;;;;;;4.13;2.00;;;;;;;;;;5105075;28;20232;-75
2021/05/05 02:27:15;;;;;;;3.28;1.90;;;;;;;;;;5115139;28;20539;-76
2021/05/05 02:29:41;;;;;;;4.18;2.50;;;;;;;;;;5113003;28;20642;-76
2021/05/05 02:32:10;;;;;;;4.15;2.38;;;;;;;;;;5107914;28;20207;-76
2021/05/05 02:34:36;;;;;;;4.38;2.38;;;;;;;;;;5111374;28;20177;-74
2021/05/05 02:37:04;;;;;;;5.50;2.50;;;;;;;;;;5131490;28;20181;-75
2021/05/05 02:39:30;;;;;;;5.63;1.92;;;;;;;;;;5123907;28;20432;-77
2021/05/05 02:41:56;;;;;;;3.65;1.90;;;;;;;;;;5111419;28;20181;-75
2021/05/05 02:44:22;;;;;;;3.47;1.98;;;;;;;;;;5102852;28;20463;-76
2021/05/05 02:46:48;;;;;;;4.23;1.87;;;;;;;;;;5130001;28;20224;-76
2021/05/05 02:49:14;;;;;;;5.07;1.77;;;;;;;;;;5107565;28;20436;-77
2021/05/05 02:51:40;;;;;;;4.13;1.70;;;;;;;;;;5119562;28;20433;-76
2021/05/05 02:54:06;;;;;;;3.90;2.00;;;;;;;;;;5107165;27;20451;-75
2021/05/05 02:56:32;;;;;;;4.70;1.80;;;;;;;;;;5109694;27;20416;-75
2021/05/05 02:58:58;;;;;;;3.45;1.85;;;;;;;;;;5115226;28;20770;-76
2021/05/05 03:01:24;;;;;;;3.85;2.10;;;;;;;;;;5136861;27;20226;-76
2021/05/05 03:03:51;;;;;;;5.57;2.33;;;;;;;;;;5107924;27;20183;-74
2021/05/05 03:06:17;;;;;;;3.42;1.90;;;;;;;;;;5117443;27;20190;-75
2021/05/05 03:08:43;;;;;;;5.28;2.08;;;;;;;;;;5123077;27;20555;-75
2021/05/05 03:11:09;;;;;;;3.40;1.80;;;;;;;;;;5111523;28;20294;-76
2021/05/05 03:13:36;;;;;;;4.40;2.00;;;;;;;;;;5107217;27;20302;-77
2021/05/05 03:16:02;;;;;;;3.90;1.73;;;;;;;;;;5128278;27;20175;-75
2021/05/05 03:18:28;;;;;;;7.13;1.80;;;;;;;;;;5116163;27;20224;-75
2021/05/05 03:20:55;;;;;;;2.70;1.87;;;;;;;;;;5119054;27;20412;-77
2021/05/05 03:23:21;;;;;;;2.85;1.80;;;;;;;;;;5115400;28;20423;-76
2021/05/05 03:25:47;;;;;;;3.93;2.10;;;;;;;;;;5121180;27;20618;-76
2021/05/05 03:28:13;;;;;;;4.50;1.53;;;;;;;;;;5117686;27;20420;-75
2021/05/05 03:30:39;;;;;;;4.72;2.05;;;;;;;;;;5135152;27;20468;-75
2021/05/05 03:33:05;;;;;;;5.73;2.13;;;;;;;;;;5120349;27;20205;-76
2021/05/05 03:35:31;;;;;;;7.20;1.80;;;;;;;;;;5124243;27;20781;-75
2021/05/05 03:37:57;;;;;;;5.27;1.93;;;;;;;;;;5127321;27;20205;-76
2021/05/05 03:40:23;;;;;;;4.00;2.00;;;;;;;;;;5118958;27;20777;-76
2021/05/05 03:42:49;;;;;;;3.78;1.80;;;;;;;;;;5115567;28;20419;-75
2021/05/05 03:45:15;;;;;;;4.90;2.17;;;;;;;;;;5126369;27;20598;-75
2021/05/05 03:47:41;;;;;;;7.28;2.35;;;;;;;;;;5122542;27;20434;-76
2021/05/05 03:50:08;;;;;;;4.43;1.70;;;;;;;;;;5127857;27;20182;-74
2021/05/05 03:52:34;;;;;;;5.18;1.67;;;;;;;;;;5136212;27;20201;-76
2021/05/05 03:55:00;;;;;;;4.03;1.70;;;;;;;;;;5120267;27;20252;-76
2021/05/05 03:57:26;;;;;;;6.00;1.80;;;;;;;;;;5135955;27;20578;-75
2021/05/05 03:59:52;;;;;;;3.97;1.60;;;;;;;;;;5120537;27;20209;-75
2021/05/05 04:02:18;;;;;;;3.90;2.50;;;;;;;;;;5118942;27;20210;-75
2021/05/05 04:04:44;;;;;;;6.10;1.90;;;;;;;;;;5119222;27;20530;-76
2021/05/05 04:07:10;;;;;;;11.77;3.10;;;;;;;;;;5115945;27;20889;-76
2021/05/05 04:09:36;;;;;;;7.17;1.70;;;;;;;;;;5118930;27;20785;-75
2021/05/05 04:12:03;;;;;;;4.28;1.92;;;;;;;;;;5115498;27;20421;-75
2021/05/05 04:14:29;;;;;;;5.35;1.98;;;;;;;;;;5121840;27;20173;-75
2021/05/05 04:16:55;;;;;;;7.73;2.33;;;;;;;;;;5121134;27;20201;-76
2021/05/05 04:19:21;;;;;;;6.00;2.22;;;;;;;;;;5135496;27;20424;-76
2021/05/05 04:21:47;;;;;;;9.10;2.10;;;;;;;;;;5127778;27;20174;-75
2021/05/05 04:24:13;;;;;;;6.10;2.10;;;;;;;;;;5114573;28;20789;-76
2021/05/05 04:26:39;;;;;;;8.38;2.38;;;;;;;;;;5125551;27;20182;-74
2021/05/05 04:29:05;;;;;;;3.55;2.00;;;;;;;;;;5114556;27;20550;-75
2021/05/05 04:31:32;;;;;;;6.90;2.30;;;;;;;;;;5129153;27;20278;-75
2021/05/05 04:33:58;;;;;;;3.95;1.90;;;;;;;;;;5135166;27;20674;-75
2021/05/05 04:36:23;;;;;;;5.15;1.98;;;;;;;;;;5123299;27;20188;-76
2021/05/05 04:38:49;;;;;;;6.20;2.10;;;;;;;;;;5115797;27;20198;-75
2021/05/05 04:41:15;;;;;;;4.93;1.97;;;;;;;;;;5115525;27;20408;-76
2021/05/05 04:43:41;;;;;;;3.37;1.80;;;;;;;;;;5120336;27;20419;-76
2021/05/05 04:46:07;;;;;;;5.82;2.00;;;;;;;;;;5134543;27;20397;-76
2021/05/05 04:48:34;;;;;;;5.67;2.00;;;;;;;;;;5112983;27;20267;-75
2021/05/05 04:51:00;;;;;;;4.25;1.90;;;;;;;;;;5110971;27;20469;-76
2021/05/05 04:53:26;;;;;;;3.65;1.92;;;;;;;;;;5104575;28;20202;-75
2021/05/05 04:55:52;;;;;;;4.05;1.85;;;;;;;;;;5114292;27;20276;-74
2021/05/05 04:58:19;;;;;;;5.43;2.17;;;;;;;;;;5116739;27;20194;-76
2021/05/05 05:00:45;;;;;;;9.07;2.75;;;;;;;;;;5116831;27;20179;-76
2021/05/05 05:03:11;;;;;;;4.13;2.87;;;;;;;;;;5114407;28;20186;-76
2021/05/05 05:05:36;;;;;;;5.33;2.20;;;;;;;;;;5112249;27;20436;-75
2021/05/05 05:08:03;;;;;;;4.97;1.97;;;;;;;;;;5122129;27;20556;-75
2021/05/05 05:10:29;;;;;;;3.35;1.90;;;;;;;;;;5119192;27;20439;-75
2021/05/05 05:12:55;;;;;;;5.75;2.10;;;;;;;;;;5122118;27;20676;-75
2021/05/05 05:15:21;;;;;;;5.38;2.10;;;;;;;;;;5110565;27;20174;-75
2021/05/05 05:17:47;;;;;;;4.90;2.40;;;;;;;;;;5134128;27;20198;-75
2021/05/05 05:20:13;;;;;;;3.75;1.70;;;;;;;;;;5116632;27;20187;-77
2021/05/05 05:22:39;;;;;;;4.37;1.77;;;;;;;;;;5115446;27;20231;-75
2021/05/05 05:25:07;;;;;;;7.43;2.05;;;;;;;;;;5113367;28;20422;-75
2021/05/05 05:27:33;;;;;;;5.75;2.85;;;;;;;;;;5117027;27;20250;-76
2021/05/05 05:29:59;;;;;;;4.83;1.50;;;;;;;;;;5114905;27;20178;-75
2021/05/05 05:32:25;;;;;;;5.95;1.90;;;;;;;;;;5113588;28;20930;-76
2021/05/05 05:34:51;;;;;;;6.80;1.73;;;;;;;;;;5100178;27;20224;-75
2021/05/05 05:37:17;;;;;;;5.50;2.10;;;;;;;;;;5113862;27;20375;-76
2021/05/05 05:39:43;;;;;;;3.23;1.93;;;;;;;;;;5113234;27;20801;-77
2021/05/05 05:42:09;;;;;;;6.95;2.60;;;;;;;;;;5113685;28;20416;-76
2021/05/05 05:44:35;;;;;;;7.00;2.73;;;;;;;;;;5128362;27;20627;-76
2021/05/05 05:47:01;;;;;;;2.73;2.20;;;;;;;;;;5113581;28;20416;-75
2021/05/05 05:49:27;;;;;;;6.40;2.60;;;;;;;;;;5112864;28;20517;-75
2021/05/05 05:51:53;;;;;;;2.83;2.00;;;;;;;;;;5120793;27;20388;-75
2021/05/05 05:54:19;;;;;;;4.60;2.40;;;;;;;;;;5109966;28;20903;-75
2021/05/05 05:56:45;;;;;;;4.57;2.83;;;;;;;;;;5122143;28;20439;-75
2021/05/05 05:59:11;;;;;;;7.25;2.35;;;;;;;;;;5117968;28;20195;-73
2021/05/05 06:01:37;;;;;;;11.47;2.57;;;;;;;;;;5114779;28;20186;-75
2021/05/05 06:04:03;;;;;;;6.00;2.80;;;;;;;;;;5123690;28;20443;-76
2021/05/05 06:06:29;;;;;;;3.30;2.13;;;;;;;;;;5127292;28;20858;-75
2021/05/05 06:08:55;;;;;;;5.30;2.58;;;;;;;;;;5122960;28;20193;-74
2021/05/05 06:11:21;;;;;;;5.35;2.40;;;;;;;;;;5114022;28;20767;-75
2021/05/05 06:13:47;;;;;;;4.80;2.37;;;;;;;;;;5121229;28;20258;-76
2021/05/05 06:16:13;;;;;;;3.50;2.00;;;;;;;;;;5109462;28;20944;-76
2021/05/05 06:18:39;;;;;;;4.97;2.00;;;;;;;;;;5138849;27;20430;-75
2021/05/05 06:21:06;;;;;;;4.93;2.40;;;;;;;;;;5129509;28;20625;-76
2021/05/05 06:23:32;;;;;;;7.15;2.40;;;;;;;;;;5108226;28;20391;-76
2021/05/05 06:25:58;;;;;;;6.60;1.87;;;;;;;;;;5113525;28;20189;-76
2021/05/05 06:28:24;;;;;;;3.53;2.27;;;;;;;;;;5117847;27;20430;-75
2021/05/05 06:30:50;;;;;;;5.28;2.25;;;;;;;;;;5116139;28;20788;-78
2021/05/05 06:33:16;;;;;;;3.42;2.00;;;;;;;;;;5118308;27;20199;-76
2021/05/05 06:35:42;;;;;;;3.37;2.30;;;;;;;;;;5138008;27;20365;-75
2021/05/05 06:38:09;;;;;;;6.40;2.88;;;;;;;;;;5120159;27;20411;-75
2021/05/05 06:40:35;;;;;;;3.10;1.80;;;;;;;;;;5121086;27;20194;-76
2021/05/05 06:43:00;;;;;;;3.47;2.03;;;;;;;;;;5132675;27;20184;-77
2021/05/05 06:45:27;;;;;;;5.57;2.47;;;;;;;;;;5104554;27;20435;-75
2021/05/05 06:47:52;;;;;;;5.55;1.70;;;;;;;;;;5116214;27;20456;-75
2021/05/05 06:50:19;;;;;;;4.53;2.30;;;;;;;;;;5107924;28;20546;-75
2021/05/05 06:52:45;;;;;;;6.32;2.00;;;;;;;;;;5117688;27;20430;-76
2021/05/05 06:55:11;;;;;;;5.70;3.20;;;;;;;;;;5117235;27;20182;-76
2021/05/05 06:57:38;;;;;;;8.77;2.75;;;;;;;;;;5129145;27;20427;-74
2021/05/05 07:00:07;;;;;;;4.10;1.80;;;;;;;;;;5133519;27;20180;-75
2021/05/05 07:02:33;;;;;;;7.03;2.05;;;;;;;;;;5133419;27;20261;-76
2021/05/05 07:04:59;;;;;;;5.10;1.93;;;;;;;;;;5133277;27;20277;-75
2021/05/05 07:07:28;;;;;;;3.73;2.00;;;;;;;;;;5130374;27;20415;-76
2021/05/05 07:09:54;;;;;;;4.70;2.05;;;;;;;;;;5133367;27;20398;-75
2021/05/05 07:12:20;;;;;;;5.60;2.53;;;;;;;;;;5116862;27;20202;-75
2021/05/05 07:14:46;;;;;;;5.95;2.20;;;;;;;;;;5123118;27;20863;-76
2021/05/05 07:17:12;;;;;;;4.70;1.90;;;;;;;;;;5129716;27;20212;-74
2021/05/05 07:19:38;;;;;;;5.63;2.30;;;;;;;;;;5133139;27;20393;-76
2021/05/05 07:22:05;;;;;;;3.90;1.90;;;;;;;;;;5125010;27;20301;-77
2021/05/05 07:24:31;;;;;;;5.68;2.10;;;;;;;;;;5123108;27;20421;-74
2021/05/05 07:26:57;;;;;;;5.85;2.40;;;;;;;;;;5122566;27;20208;-78
2021/05/05 07:29:23;;;;;;;7.07;2.43;;;;;;;;;;5112645;27;20202;-76
2021/05/05 07:31:49;;;;;;;3.35;2.08;;;;;;;;;;5113415;27;20420;-75
2021/05/05 07:34:15;;;;;;;3.83;1.80;;;;;;;;;;5122512;27;20600;-78
2021/05/05 07:36:45;;;;;;;4.35;1.83;;;;;;;;;;5114380;27;20665;-75
2021/05/05 07:47:26;;;;;;;5.60;2.63;;;;;;;;;;5107937;27;20919;-74
2021/05/05 07:49:55;;;;;;;3.97;2.30;;;;;;;;;;5111519;28;20186;-75
2021/05/05 07:52:21;;;;;;;6.10;2.30;;;;;;;;;;5106215;28;20202;-73
2021/05/05 07:54:47;;;;;;;4.20;2.15;;;;;;;;;;5112215;27;20175;-76
2021/05/05 07:57:13;;;;;;;4.43;2.45;;;;;;;;;;5124099;27;20182;-76
2021/05/05 07:59:40;;;;;;;4.22;2.40;;;;;;;;;;5114680;27;20206;-74
2021/05/05 08:02:06;;;;;;;5.22;2.13;;;;;;;;;;5124250;27;20535;-76
2021/05/05 08:04:32;;;;;;;5.32;2.72;;;;;;;;;;5115625;27;20564;-74
2021/05/05 08:06:58;;;;;;;6.75;2.00;;;;;;;;;;5132683;27;20180;-75
2021/05/05 08:09:25;;;;;;;5.05;2.47;;;;;;;;;;5115695;27;20238;-75
2021/05/05 08:11:51;;;;;;;5.57;2.60;;;;;;;;;;5104190;28;20639;-76
2021/05/05 08:14:18;;;;;;;6.65;2.45;;;;;;;;;;5114900;27;20214;-75
2021/05/05 08:16:44;;;;;;;5.32;2.83;;;;;;;;;;5111614;28;20206;-75
2021/05/05 08:19:10;;;;;;;6.10;2.78;;;;;;;;;;5118737;27;20202;-75
2021/05/05 08:21:36;;;;;;;4.05;2.55;;;;;;;;;;5123617;27;20186;-76
2021/05/05 08:24:02;;;;;;;12.87;3.67;;;;;;;;;;5117753;27;20186;-77
2021/05/05 08:26:30;;;;;;;7.88;3.15;;;;;;;;;;5111799;28;20501;-74
2021/05/05 08:28:56;;;;;;;6.65;3.30;;;;;;;;;;5113310;27;20663;-77
2021/05/05 08:31:22;;;;;;;8.80;4.05;;;;;;;;;;5123624;27;20220;-73
2021/05/05 08:33:48;;;;;;;7.55;3.53;;;;;;;;;;5128006;27;20600;-76
2021/05/05 08:36:14;;;;;;;6.97;4.20;;;;;;;;;;5131856;27;20177;-78
2021/05/05 08:38:40;;;;;;;7.28;2.90;;;;;;;;;;5124451;27;20194;-76
2021/05/05 08:41:09;;;;;;;6.80;3.20;;;;;;;;;;5098181;28;20206;-75
2021/05/05 08:43:35;;;;;;;6.38;4.53;;;;;;;;;;5120584;27;20182;-76
2021/05/05 08:46:01;;;;;;;14.02;6.88;;;;;;;;;;5114675;27;20246;-74
2021/05/05 08:48:28;;;;;;;5.80;3.55;;;;;;;;;;5107394;27;20290;-74
2021/05/05 08:50:54;;;;;;;9.18;3.65;;;;;;;;;;5100394;27;20221;-77
2021/05/05 08:53:20;;;;;;;15.07;5.50;;;;;;;;;;5119562;27;20210;-78
2021/05/05 08:55:46;;;;;;;6.50;3.10;;;;;;;;;;5124490;27;20197;-75
2021/05/05 08:58:12;;;;;;;8.73;3.03;;;;;;;;;;5113147;27;20234;-74
2021/05/05 09:00:39;;;;;;;11.43;4.40;;;;;;;;;;5128104;27;20196;-74
2021/05/05 09:03:07;;;;;;;6.25;3.15;;;;;;;;;;5122959;27;20550;-74
2021/05/05 09:05:51;;;;;;;7.47;3.03;;;;;;;;;;5131077;27;20201;-73
2021/05/05 09:08:17;;;;;;;6.22;3.03;;;;;;;;;;5100184;27;20309;-76
2021/05/05 09:10:57;;;;;;;15.00;3.90;;;;;;;;;;5130997;27;20480;-74
2021/05/05 09:13:43;;;;;;;10.05;3.30;;;;;;;;;;5116468;27;20238;-77
2021/05/05 09:16:10;;;;;;;6.88;3.40;;;;;;;;;;5130902;27;20172;-75
2021/05/05 09:18:54;;;;;;;7.60;3.30;;;;;;;;;;5104939;27;20202;-76
2021/05/05 09:21:27;;;;;;;5.07;2.65;;;;;;;;;;5104493;28;20715;-76
2021/05/05 09:24:13;;;;;;;5.57;2.80;;;;;;;;;;5098306;27;20183;-75
2021/05/05 09:26:39;;;;;;;6.13;2.55;;;;;;;;;;5140485;27;20184;-74
2021/05/05 09:29:05;;;;;;;6.28;2.58;;;;;;;;;;5108925;27;20298;-74
2021/05/05 09:31:38;;;;;;;9.57;2.65;;;;;;;;;;5124377;27;20614;-77
2021/05/05 09:34:07;;;;;;;6.13;2.30;;;;;;;;;;5125071;27;20262;-74
2021/05/05 09:36:33;;;;;;;6.40;2.38;;;;;;;;;;5114966;27;20219;-77
2021/05/05 09:39:02;;;;;;;3.13;2.00;;;;;;;;;;5117863;27;20221;-77
2021/05/05 09:41:29;;;;;;;4.00;2.35;;;;;;;;;;5109972;28;20413;-75
2021/05/05 09:44:06;;;;;;;4.55;2.85;;;;;;;;;;5127620;27;20188;-75
2021/05/05 09:46:41;;;;;;;7.65;3.15;;;;;;;;;;5125302;27;20177;-75
2021/05/05 09:49:20;;;;;;;4.85;2.42;;;;;;;;;;5125247;27;20204;-76
2021/05/05 09:51:49;;;;;;;3.70;2.15;;;;;;;;;;5103401;27;20276;-75
2021/05/05 09:54:22;;;;;;;4.50;2.22;;;;;;;;;;5125289;27;20206;-75
2021/05/05 09:56:48;;;;;;;3.83;2.50;;;;;;;;;;5130378;28;20188;-75
2021/05/05 09:59:14;;;;;;;5.03;2.67;;;;;;;;;;5128132;28;20194;-75
2021/05/05 10:01:40;;;;;;;8.30;2.60;;;;;;;;;;5130335;28;20181;-75
2021/05/05 10:04:07;;;;;;;5.43;2.30;;;;;;;;;;5131285;27;20435;-76
2021/05/05 10:06:37;;;;;;;8.23;2.50;;;;;;;;;;5110216;27;20232;-75
2021/05/05 10:09:08;;;;;;;8.68;3.53;;;;;;;;;;5131523;27;20238;-74
2021/05/05 10:11:34;;;;;;;4.88;2.90;;;;;;;;;;5113981;28;20217;-77
2021/05/05 10:14:04;;;;;;;4.78;2.38;;;;;;;;;;5125118;27;20254;-77
2021/05/05 10:16:32;;;;;;;8.25;2.58;;;;;;;;;;5123755;27;20181;-74
2021/05/05 10:18:58;;;;;;;6.18;2.70;;;;;;;;;;5116626;27;20198;-75
2021/05/05 10:21:25;;;;;;;10.50;2.90;;;;;;;;;;5113600;28;20239;-75
2021/05/05 10:23:52;;;;;;;4.72;2.70;;;;;;;;;;5110639;27;20262;-74
2021/05/05 10:26:19;;;;;;;5.15;2.47;;;;;;;;;;5122983;27;20186;-75
2021/05/05 10:28:46;;;;;;;5.43;2.20;;;;;;;;;;5113117;28;20905;-74
2021/05/05 10:31:18;;;;;;;5.80;2.10;;;;;;;;;;5104789;27;20179;-77
2021/05/05 10:33:46;;;;;;;5.80;2.03;;;;;;;;;;5130322;27;20201;-75
2021/05/05 10:36:29;;;;;;;3.65;2.00;;;;;;;;;;5114783;27;20179;-74
2021/05/05 10:38:55;;;;;;;3.88;2.60;;;;;;;;;;5104375;27;20185;-75
2021/05/05 10:41:22;;;;;;;3.28;2.15;;;;;;;;;;5106246;27;20262;-74
2021/05/05 10:43:49;;;;;;;4.93;2.00;;;;;;;;;;5133361;27;20188;-75
2021/05/05 10:46:25;;;;;;;3.95;1.88;;;;;;;;;;5120120;27;20190;-76
2021/05/05 10:49:01;;;;;;;2.63;1.88;;;;;;;;;;5133437;27;20229;-75
2021/05/05 10:51:49;;;;;;;3.50;2.30;;;;;;;;;;5124173;27;20186;-75
2021/05/05 10:54:15;;;;;;;3.40;2.35;;;;;;;;;;5132914;27;20696;-75
2021/05/05 10:56:44;;;;;;;3.78;2.58;;;;;;;;;;5112729;27;20258;-75
2021/05/05 10:59:12;;;;;;;3.72;2.30;;;;;;;;;;5113974;27;20694;-75
2021/05/05 11:01:39;;;;;;;4.38;2.40;;;;;;;;;;5115809;27;20175;-76
2021/05/05 11:04:06;;;;;;;5.60;3.20;;;;;;;;;;5119469;27;20547;-74
2021/05/05 11:06:32;;;;;;;4.72;2.50;;;;;;;;;;5131285;27;20196;-78
2021/05/05 11:09:15;;;;;;;5.72;2.20;;;;;;;;;;5117482;27;20276;-74
2021/05/05 11:11:44;;;;;;;6.45;2.28;;;;;;;;;;5108923;27;20648;-76
2021/05/05 11:14:33;;;;;;;6.13;2.70;;;;;;;;;;5122603;27;20570;-76
2021/05/05 11:17:00;;;;;;;4.88;2.30;;;;;;;;;;5124440;27;20234;-75
2021/05/05 11:19:41;;;;;;;4.60;2.88;;;;;;;;;;5116237;27;20678;-76
2021/05/05 11:22:08;;;;;;;5.63;2.55;;;;;;;;;;5126365;27;20182;-76
2021/05/05 11:24:35;;;;;;;6.13;2.72;;;;;;;;;;5117094;27;20531;-75
2021/05/05 11:27:02;;;;;;;4.38;2.13;;;;;;;;;;5126410;27;20170;-74
2021/05/05 11:29:34;;;;;;;3.00;1.67;;;;;;;;;;5104502;28;20258;-77
2021/05/05 11:32:00;;;;;;;3.35;1.80;;;;;;;;;;5127076;27;20193;-76
2021/05/05 11:34:27;;;;;;;4.57;1.77;;;;;;;;;;5120861;27;20205;-74
2021/05/05 11:36:56;;;;;;;2.85;1.90;;;;;;;;;;5132617;27;20260;-74
2021/05/05 11:39:26;;;;;;;2.92;1.75;;;;;;;;;;5118929;27;20209;-75
2021/05/05 11:41:53;;;;;;;3.55;1.92;;;;;;;;;;5117785;27;20178;-77
2021/05/05 11:44:36;;;;;;;4.72;2.20;;;;;;;;;;5109951;27;20187;-76
2021/05/05 11:47:03;;;;;;;2.50;1.80;;;;;;;;;;5092132;28;20686;-74
2021/05/05 11:49:42;;;;;;;2.60;1.80;;;;;;;;;;5121614;27;20281;-77
2021/05/05 11:52:28;;;;;;;3.55;2.05;;;;;;;;;;5115721;27;20183;-75
2021/05/05 11:55:03;;;;;;;5.60;1.88;;;;;;;;;;5112654;27;20539;-76
2021/05/05 11:57:30;;;;;;;3.50;2.63;;;;;;;;;;5112361;27;20261;-72
2021/05/05 11:59:57;;;;;;;3.50;2.10;;;;;;;;;;5118109;27;20174;-75
2021/05/05 12:02:23;;;;;;;2.53;2.10;;;;;;;;;;5121988;27;20205;-77
2021/05/05 12:04:50;;;;;;;2.60;1.75;;;;;;;;;;5119473;27;20193;-78
2021/05/05 12:07:17;;;;;;;2.53;1.67;;;;;;;;;;5132370;27;20178;-75
2021/05/05 12:09:43;;;;;;;4.38;2.15;;;;;;;;;;5132101;27;20185;-74
2021/05/05 12:12:23;;;;;;;6.85;2.30;;;;;;;;;;5117313;27;20236;-75
2021/05/05 12:14:53;;;;;;;3.42;2.20;;;;;;;;;;5121855;27;20594;-75
2021/05/05 12:17:31;;;;;;;3.25;2.10;;;;;;;;;;5129358;27;20189;-75
2021/05/05 12:19:58;;;;;;;3.25;1.90;;;;;;;;;;5132050;27;20170;-75
2021/05/05 12:22:25;;;;;;;2.30;1.42;;;;;;;;;;5117602;27;20174;-75
2021/05/05 12:25:10;;;;;;;5.32;1.52;;;;;;;;;;5107074;27;20700;-75
2021/05/05 12:27:37;;;;;;;3.80;1.70;;;;;;;;;;5113927;27;20551;-73
2021/05/05 12:30:09;;;;;;;2.47;1.23;;;;;;;;;;5124816;27;20173;-76
2021/05/05 12:32:41;;;;;;;3.95;1.50;;;;;;;;;;5131685;27;20202;-74
2021/05/05 12:35:09;;;;;;;2.47;1.50;;;;;;;;;;5131460;27;20174;-75
2021/05/05 12:37:35;;;;;;;3.38;2.10;;;;;;;;;;5131491;27;20295;-74
2021/05/05 12:40:01;;;;;;;3.95;2.30;;;;;;;;;;5113521;27;20178;-73
2021/05/05 12:42:36;;;;;;;4.73;3.10;;;;;;;;;;5121569;27;20177;-75
2021/05/05 12:45:10;;;;;;;3.63;2.83;;;;;;;;;;5130974;27;20378;-76
2021/05/05 12:47:36;;;;;;;7.13;2.60;;;;;;;;;;5110839;28;20689;-74
2021/05/05 12:50:03;;;;;;;3.10;2.15;;;;;;;;;;5120050;27;20187;-73
2021/05/05 12:52:31;;;;;;;5.65;2.40;;;;;;;;;;5123887;27;20234;-76
2021/05/05 12:54:58;;;;;;;4.70;1.75;;;;;;;;;;5129129;27;20181;-75
2021/05/05 12:57:26;;;;;;;4.97;2.35;;;;;;;;;;5129543;27;20174;-74
2021/05/05 12:59:53;;;;;;;3.10;2.17;;;;;;;;;;5118430;27;20262;-76
2021/05/05 13:02:24;;;;;;;4.57;2.22;;;;;;;;;;5118535;27;20170;-75
2021/05/05 13:04:51;;;;;;;4.15;2.50;;;;;;;;;;5119933;27;20278;-74
2021/05/05 13:07:30;;;;;;;7.53;2.75;;;;;;;;;;5120067;27;20170;-74
2021/05/05 13:10:12;;;;;;;3.75;2.35;;;;;;;;;;5119549;27;20194;-76
2021/05/05 13:12:44;;;;;;;4.05;2.30;;;;;;;;;;5143395;27;20201;-77
2021/05/05 13:15:29;;;;;;;6.93;2.60;;;;;;;;;;5111119;27;20238;-75
2021/05/05 13:30:05;;;;;;;4.85;2.60;;;;;;;;;;5108025;27;20169;-76
2021/05/05 13:32:36;;;;;;;4.82;2.25;;;;;;;;;;5106954;27;20208;-77
2021/05/05 13:35:23;;;;;;;7.35;2.70;;;;;;;;;;5120979;27;20190;-76
2021/05/05 13:37:56;;;;;;;4.90;2.40;;;;;;;;;;5114593;27;20214;-74
2021/05/05 13:40:22;;;;;;;4.78;2.35;;;;;;;;;;5115101;27;20182;-76
2021/05/05 13:42:49;;;;;;;3.90;2.40;;;;;;;;;;5123674;27;20184;-74
2021/05/05 13:45:16;;;;;;;5.25;2.10;;;;;;;;;;5112021;27;20224;-75
2021/05/05 13:48:09;;;;;;;5.57;2.75;;;;;;;;;;5123568;27;20262;-75
2021/05/05 13:50:35;;;;;;;6.13;2.50;;;;;;;;;;5130379;27;20185;-78
2021/05/05 13:53:01;;;;;;;5.95;2.47;;;;;;;;;;5130107;27;20205;-75
2021/05/05 13:55:27;;;;;;;7.43;2.50;;;;;;;;;;5128973;27;20526;-76
2021/05/05 13:57:53;;;;;;;8.00;2.60;;;;;;;;;;5112852;28;20551;-76
2021/05/05 14:00:19;;;;;;;4.80;2.60;;;;;;;;;;5126467;28;20186;-75
2021/05/05 14:02:45;;;;;;;4.70;2.17;;;;;;;;;;5107720;28;20459;-75
2021/05/05 14:05:13;;;;;;;6.70;2.83;;;;;;;;;;5111186;28;20194;-75
2021/05/05 14:07:40;;;;;;;5.05;2.40;;;;;;;;;;5116830;28;20409;-77
2021/05/05 14:10:07;;;;;;;6.20;2.80;;;;;;;;;;5109513;28;20667;-76
2021/05/05 14:12:33;;;;;;;4.78;2.45;;;;;;;;;;5129833;28;20178;-76
2021/05/05 14:15:00;;;;;;;5.43;2.85;;;;;;;;;;5107291;28;20680;-76
2021/05/05 14:17:30;;;;;;;12.00;3.30;;;;;;;;;;5099576;28;20175;-76
2021/05/05 14:19:57;;;;;;;7.78;3.20;;;;;;;;;;5114420;28;20229;-74
2021/05/05 14:22:23;;;;;;;8.57;2.45;;;;;;;;;;5111060;28;20655;-74
2021/05/05 14:24:49;;;;;;;4.10;2.60;;;;;;;;;;5109144;28;20265;-75
2021/05/05 14:27:15;;;;;;;6.07;2.63;;;;;;;;;;5115984;28;20261;-74
2021/05/05 14:29:41;;;;;;;5.18;2.20;;;;;;;;;;5109341;28;20175;-75
2021/05/05 14:32:07;;;;;;;7.10;2.60;;;;;;;;;;5117812;28;20174;-75
2021/05/05 14:34:33;;;;;;;7.57;3.00;;;;;;;;;;5129533;28;20232;-77
2021/05/05 14:36:59;;;;;;;7.28;3.90;;;;;;;;;;5129962;28;20262;-76
2021/05/05 14:39:25;;;;;;;5.40;2.67;;;;;;;;;;5117245;28;20628;-77
2021/05/05 14:41:51;;;;;;;10.82;5.63;;;;;;;;;;5110531;28;20225;-74
2021/05/05 14:44:22;;;;;;;5.88;5.20;;;;;;;;;;5122016;28;20187;-77
2021/05/05 14:49:33;;;;;;;8.57;3.47;;;;;;;;;;5131063;27;20688;-76
2021/05/05 14:51:59;;;;;;;7.15;3.65;;;;;;;;;;5133540;27;20276;-76
2021/05/05 14:54:25;;;;;;;7.37;2.63;;;;;;;;;;5133215;27;20721;-73
2021/05/05 14:56:51;;;;;;;7.25;2.90;;;;;;;;;;5133499;27;20472;-76
2021/05/05 14:59:20;;;;;;;8.30;2.70;;;;;;;;;;5133043;27;20607;-76
2021/05/05 15:01:46;;;;;;;9.18;2.47;;;;;;;;;;5133539;27;20173;-76
2021/05/05 15:04:12;;;;;;;8.60;3.03;;;;;;;;;;5124566;27;20270;-76
2021/05/05 15:06:43;;;;;;;4.82;2.88;;;;;;;;;;5121516;27;20301;-76
2021/05/05 15:14:29;;;;;;;8.48;3.22;;;;;;;;;;5129710;27;20206;-74